CheckWX is a tool to help pilots better visualize weather data.  It is not intended as a substitute for an official pre-flight weather briefing.

05:14:51 UTC

FBSK TAF
Sir Seretse Khama International Airport
Gaborone, Botswana
TAF FBSK 172100Z 1800/1906 13006KT CAVOK

Jun-18@
00:00 UTC

Jun-18 @ 00:00 UTC

Jun-19@
06:00 UTC

Jun-19 @ 06:00 UTC

TAF FBSK 172100Z 1800/1906 13006KT CAVOK
Wind
  • 130° at 6 KTS
Conditions
No significant weather
Cloud Levels
  • No significant clouds